Time;durP1;ratioP1;P1;durP2;ratioP2;P2;SDS_P1;SDS_P2;PMS_P1;PMS_P2;Temp;Humidity;BMP_temperature;BMP_pressure;BME280_temperature;BME280_humidity;BME280_pressure;Samples;Min_cycle;Max_cycle;Signal;HPM_P1;HPM_P2
2022/01/24 00:00:16;;;;;;;7.33;3.67;;;4.80;99.90;;;;;;5032867;28;20209;-76
2022/01/24 00:02:44;;;;;;;5.57;3.53;;;4.80;99.90;;;;;;5000212;28;20264;-82
2022/01/24 00:05:12;;;;;;;5.53;3.27;;;4.80;99.90;;;;;;5048977;28;20283;-76
2022/01/24 00:07:38;;;;;;;4.80;3.07;;;4.60;99.90;;;;;;5014942;28;20182;-76
2022/01/24 00:10:09;;;;;;;6.47;3.60;;;4.70;99.90;;;;;;4980603;28;20192;-76
2022/01/24 00:15:51;;;;;;;7.17;3.60;;;4.60;99.90;;;;;;5014723;28;20205;-82
2022/01/24 00:18:13;;;;;;;6.47;4.07;;;4.40;99.90;;;;;;5032038;28;20243;-77
2022/01/24 00:26:44;;;;;;;5.93;3.80;;;4.50;99.90;;;;;;5031459;28;20236;-76
2022/01/24 00:29:06;;;;;;;6.23;3.77;;;4.70;99.90;;;;;;5017231;28;20300;-76
2022/01/24 00:31:32;;;;;;;7.17;4.10;;;4.80;99.90;;;;;;5031368;28;20265;-83
2022/01/24 00:33:57;;;;;;;10.37;4.27;;;5.10;99.90;;;;;;5030718;28;20180;-80
2022/01/24 00:36:23;;;;;;;6.40;4.27;;;4.80;99.90;;;;;;5031732;28;20181;-76
2022/01/24 00:38:49;;;;;;;6.87;4.40;;;4.60;99.90;;;;;;5032417;28;20204;-76
2022/01/24 00:41:18;;;;;;;5.93;3.63;;;4.50;99.90;;;;;;5016137;28;20173;-75
2022/01/24 00:44:23;;;;;;;7.50;4.17;;;4.40;99.90;;;;;;5014717;28;20186;-84
2022/01/24 00:46:52;;;;;;;6.37;3.57;;;4.40;99.90;;;;;;5030612;28;20174;-84
2022/01/24 00:49:36;;;;;;;7.00;4.10;;;4.60;99.90;;;;;;5031054;28;20174;-76
2022/01/24 00:54:52;;;;;;;6.80;4.47;;;5.10;99.90;;;;;;5030715;28;20177;-78
2022/01/24 00:57:19;;;;;;;5.83;3.73;;;5.20;99.90;;;;;;5047084;28;20180;-77
2022/01/24 00:59:46;;;;;;;5.83;3.67;;;4.90;99.90;;;;;;5030879;28;20210;-83
2022/01/24 01:02:12;;;;;;;6.80;3.87;;;4.90;99.90;;;;;;5015122;28;20208;-76
2022/01/24 01:07:33;;;;;;;7.20;4.33;;;4.80;99.90;;;;;;5032252;28;20174;-75
2022/01/24 01:18:15;;;;;;;7.03;4.07;;;4.60;99.90;;;;;;5030321;28;20186;-83
2022/01/24 01:21:08;;;;;;;5.67;3.93;;;4.40;99.90;;;;;;5014341;28;20178;-83
2022/01/24 01:23:38;;;;;;;7.40;4.27;;;4.80;99.90;;;;;;5030365;28;20181;-83
2022/01/24 01:26:08;;;;;;;7.27;4.27;;;5.20;99.90;;;;;;5030980;28;20172;-81
2022/01/24 01:28:35;;;;;;;7.30;4.37;;;5.20;99.90;;;;;;5030108;28;20178;-76
2022/01/24 01:31:07;;;;;;;6.30;3.90;;;5.20;99.90;;;;;;5025148;28;21114;-76
2022/01/24 01:55:26;;;;;;;5.80;4.13;;;4.50;99.90;;;;;;5030790;28;20248;-77
2022/01/24 01:57:52;;;;;;;6.53;4.07;;;4.60;99.90;;;;;;5029958;28;20196;-76
2022/01/24 02:00:18;;;;;;;5.33;4.03;;;4.60;99.90;;;;;;5013867;28;20645;-83
2022/01/24 02:02:44;;;;;;;6.00;4.10;;;4.60;99.90;;;;;;5029591;28;20165;-83
2022/01/24 02:05:10;;;;;;;7.17;4.30;;;4.30;99.90;;;;;;4997414;28;20648;-84
2022/01/24 02:07:52;;;;;;;6.20;4.30;;;4.20;99.90;;;;;;5029833;28;20700;-76
2022/01/24 02:10:23;;;;;;;6.17;4.07;;;4.30;99.90;;;;;;4993727;28;20201;-75
2022/01/24 02:12:51;;;;;;;5.93;4.17;;;4.40;99.90;;;;;;4992549;28;20840;-82
2022/01/24 02:15:25;;;;;;;7.13;4.20;;;4.60;99.90;;;;;;5009092;28;20277;-83
2022/01/24 02:23:13;;;;;;;7.37;4.47;;;4.40;99.90;;;;;;5019807;28;20248;-84
2022/01/24 02:25:37;;;;;;;5.47;4.13;;;4.40;99.90;;;;;;5023909;28;20650;-83
2022/01/24 02:28:05;;;;;;;6.17;3.90;;;4.60;99.90;;;;;;5026563;28;20197;-83
2022/01/24 02:30:52;;;;;;;7.50;4.83;;;4.70;99.90;;;;;;5029736;28;20261;-84
2022/01/24 02:33:18;;;;;;;6.47;4.30;;;4.70;99.90;;;;;;5029739;28;20178;-77
2022/01/24 02:35:45;;;;;;;7.57;4.83;;;4.50;99.90;;;;;;5029181;28;20212;-84
2022/01/24 02:38:46;;;;;;;6.20;4.17;;;4.50;99.90;;;;;;5029312;28;20189;-75
2022/01/24 02:49:13;;;;;;;16.30;5.53;;;4.20;99.90;;;;;;5033271;28;20173;-77
2022/01/24 02:54:06;;;;;;;6.93;4.17;;;4.10;99.90;;;;;;5033643;28;20178;-76
2022/01/24 02:56:31;;;;;;;6.87;4.20;;;4.00;99.90;;;;;;5033387;28;20182;-77
2022/01/24 02:58:57;;;;;;;7.80;5.10;;;3.90;99.90;;;;;;5016465;28;20232;-76
2022/01/24 03:01:23;;;;;;;7.83;5.10;;;4.10;99.90;;;;;;5016330;28;20180;-82
2022/01/24 03:03:49;;;;;;;7.30;4.57;;;4.30;99.90;;;;;;5049717;28;20205;-83
2022/01/24 03:06:15;;;;;;;9.07;4.57;;;4.10;99.90;;;;;;5016218;28;20170;-77
2022/01/24 03:08:41;;;;;;;6.40;4.17;;;4.30;99.90;;;;;;5033071;28;20236;-83
2022/01/24 03:11:08;;;;;;;7.30;4.67;;;4.30;99.90;;;;;;5049547;28;20514;-85
2022/01/24 03:13:34;;;;;;;6.57;4.27;;;4.40;99.90;;;;;;5032370;28;20170;-77
2022/01/24 03:16:03;;;;;;;6.53;4.20;;;4.50;99.90;;;;;;5032334;28;20696;-82
2022/01/24 03:18:29;;;;;;;6.87;3.87;;;4.40;99.90;;;;;;5016100;28;20605;-75
2022/01/24 03:20:55;;;;;;;7.23;4.60;;;4.50;99.90;;;;;;5034380;28;20900;-82
2022/01/24 03:23:23;;;;;;;7.10;4.40;;;4.50;99.90;;;;;;5035253;28;20170;-75
2022/01/24 03:25:49;;;;;;;7.17;3.90;;;4.50;99.90;;;;;;5032597;28;20666;-84
2022/01/24 03:28:16;;;;;;;7.83;4.60;;;4.40;99.90;;;;;;5033903;28;20252;-83
2022/01/24 03:30:42;;;;;;;7.50;4.40;;;4.40;99.90;;;;;;5032450;28;20170;-78
2022/01/24 03:33:08;;;;;;;6.50;4.10;;;4.40;99.90;;;;;;5015880;28;20170;-76
2022/01/24 03:35:35;;;;;;;6.43;4.17;;;4.40;99.90;;;;;;5032731;28;20170;-76
2022/01/24 03:38:03;;;;;;;6.27;4.17;;;4.50;99.90;;;;;;5015876;28;20170;-85
2022/01/24 03:40:29;;;;;;;6.90;4.17;;;4.40;99.90;;;;;;5033650;28;20289;-84
2022/01/24 03:42:55;;;;;;;8.57;4.57;;;4.40;99.90;;;;;;5016849;28;20245;-84
2022/01/24 03:45:35;;;;;;;6.33;4.40;;;4.50;99.90;;;;;;5031802;28;20182;-76
2022/01/24 03:48:11;;;;;;;7.83;4.47;;;4.50;99.90;;;;;;5017827;28;20257;-75
2022/01/24 03:50:38;;;;;;;6.10;4.17;;;4.40;99.90;;;;;;5031922;28;20272;-84
2022/01/24 03:53:04;;;;;;;6.77;4.07;;;4.20;99.90;;;;;;5031654;28;20641;-84
2022/01/24 03:55:33;;;;;;;6.77;3.97;;;4.10;99.90;;;;;;5016435;28;20188;-83
2022/01/24 03:57:59;;;;;;;8.60;4.43;;;4.00;99.90;;;;;;5034336;28;20197;-84
2022/01/24 04:00:24;;;;;;;8.63;4.77;;;4.40;99.90;;;;;;5015525;28;20685;-77
2022/01/24 04:02:50;;;;;;;6.70;4.10;;;4.10;99.90;;;;;;5015492;28;20702;-76
2022/01/24 04:05:16;;;;;;;6.53;4.17;;;4.20;99.90;;;;;;5031575;28;20212;-78
2022/01/24 04:07:42;;;;;;;7.40;4.80;;;4.20;99.90;;;;;;5033283;28;20174;-77
2022/01/24 04:10:09;;;;;;;6.83;4.40;;;4.20;99.90;;;;;;4982771;28;20664;-76
2022/01/24 04:12:37;;;;;;;6.17;4.37;;;4.20;99.90;;;;;;4998909;28;20227;-77
2022/01/24 04:15:12;;;;;;;6.27;4.23;;;4.20;99.90;;;;;;5015330;28;20194;-77
2022/01/24 04:17:45;;;;;;;7.20;4.70;;;4.10;99.90;;;;;;5017279;28;20319;-78
2022/01/24 04:23:00;;;;;;;6.93;4.10;;;4.00;99.90;;;;;;5017988;28;20174;-76
2022/01/24 04:25:26;;;;;;;6.33;3.77;;;3.80;99.90;;;;;;5031576;28;20200;-76
2022/01/24 04:27:55;;;;;;;5.60;3.97;;;3.70;99.90;;;;;;5031925;28;20197;-83
2022/01/24 04:30:22;;;;;;;8.40;4.57;;;3.40;99.90;;;;;;5048001;28;20722;-82
2022/01/24 04:32:48;;;;;;;5.87;4.27;;;3.70;99.90;;;;;;5030670;28;20176;-76
2022/01/24 04:35:15;;;;;;;6.10;3.97;;;3.70;99.90;;;;;;5032479;28;20181;-77
2022/01/24 04:37:41;;;;;;;6.30;3.90;;;3.70;99.90;;;;;;4998267;28;20178;-79
2022/01/24 04:40:07;;;;;;;5.87;3.73;;;3.70;99.90;;;;;;5031037;28;20926;-83
2022/01/24 04:42:47;;;;;;;4.90;3.77;;;3.80;99.90;;;;;;5032343;28;20629;-83
2022/01/24 04:45:32;;;;;;;4.37;3.13;;;3.70;99.90;;;;;;5032199;28;20176;-83
2022/01/24 04:51:10;;;;;;;5.57;3.57;;;3.50;99.90;;;;;;5019646;28;20658;-83
2022/01/24 04:56:04;;;;;;;7.37;4.20;;;3.90;99.90;;;;;;5030920;28;20165;-75
2022/01/24 04:58:30;;;;;;;6.00;3.77;;;4.00;99.90;;;;;;5031303;28;20217;-85
2022/01/24 05:00:56;;;;;;;5.83;4.03;;;3.90;99.90;;;;;;5047251;28;20256;-84
2022/01/24 05:03:22;;;;;;;6.50;4.57;;;4.00;99.90;;;;;;5029731;28;20833;-85
2022/01/24 05:05:49;;;;;;;7.77;4.57;;;3.90;99.90;;;;;;5013279;28;20268;-81
2022/01/24 05:08:15;;;;;;;6.60;3.67;;;3.70;99.90;;;;;;5047281;28;20173;-77
2022/01/24 05:10:56;;;;;;;7.90;4.57;;;3.70;99.90;;;;;;5013957;28;20331;-85
2022/01/24 05:23:26;;;;;;;6.00;4.30;;;3.50;99.90;;;;;;5030766;28;20166;-85
2022/01/24 05:24:26;;;;;;;7.10;4.53;;;3.30;99.90;;;;;;5017595;28;20257;-77
2022/01/24 05:26:52;;;;;;;5.47;4.13;;;3.30;99.90;;;;;;5030360;28;20265;-83
2022/01/24 05:29:18;;;;;;;6.07;4.00;;;3.60;99.90;;;;;;5030644;28;20555;-77
2022/01/24 05:31:44;;;;;;;9.60;4.83;;;3.50;99.90;;;;;;5014397;28;20198;-83
2022/01/24 05:34:09;;;;;;;6.37;4.23;;;3.50;99.90;;;;;;5031265;28;20178;-83
2022/01/24 05:36:35;;;;;;;6.00;4.43;;;3.50;99.90;;;;;;5013539;28;20180;-82
2022/01/24 05:39:01;;;;;;;5.13;3.57;;;3.20;99.90;;;;;;5030070;28;20269;-84
2022/01/24 05:41:27;;;;;;;6.50;4.50;;;3.30;99.90;;;;;;5012839;28;20201;-81
2022/01/24 05:43:53;;;;;;;5.97;4.27;;;3.20;99.90;;;;;;5030060;28;20561;-77
2022/01/24 05:46:19;;;;;;;6.50;4.23;;;3.20;99.90;;;;;;5030027;28;20189;-76
2022/01/24 05:48:45;;;;;;;7.03;4.40;;;3.30;99.90;;;;;;4997249;28;20185;-78
2022/01/24 05:51:11;;;;;;;6.90;4.10;;;3.70;99.90;;;;;;5029910;28;20200;-84
2022/01/24 05:53:37;;;;;;;7.17;4.90;;;3.40;99.90;;;;;;5029823;28;20247;-77
2022/01/24 05:56:03;;;;;;;6.10;4.37;;;3.40;99.90;;;;;;5013514;28;20265;-84
2022/01/24 05:58:29;;;;;;;7.40;4.87;;;3.50;99.90;;;;;;5029786;28;20201;-77
2022/01/24 06:00:55;;;;;;;8.47;5.37;;;3.40;99.90;;;;;;5029942;28;20181;-83
2022/01/24 06:03:21;;;;;;;7.50;4.20;;;3.50;99.90;;;;;;5013425;28;20189;-83
2022/01/24 06:05:47;;;;;;;6.83;4.73;;;3.60;99.90;;;;;;4997067;28;20193;-75
2022/01/24 06:08:13;;;;;;;6.97;4.40;;;3.70;99.90;;;;;;5030829;28;20165;-84
2022/01/24 06:10:40;;;;;;;7.73;4.80;;;3.80;99.90;;;;;;4996558;28;20184;-78
2022/01/24 06:13:07;;;;;;;6.57;4.50;;;3.80;99.90;;;;;;5013363;28;20185;-76
2022/01/24 06:15:34;;;;;;;8.57;4.90;;;3.90;99.90;;;;;;5031091;28;20212;-84
2022/01/24 06:17:59;;;;;;;8.60;4.93;;;3.90;99.90;;;;;;5001472;28;20173;-85
2022/01/24 06:20:25;;;;;;;9.20;5.40;;;4.00;99.90;;;;;;5032814;28;20750;-83
2022/01/24 06:22:51;;;;;;;7.90;5.20;;;4.10;99.90;;;;;;5017013;28;20193;-84
2022/01/24 06:25:22;;;;;;;8.37;4.77;;;4.00;99.90;;;;;;5033580;28;20174;-77
2022/01/24 06:27:48;;;;;;;8.10;4.97;;;3.90;99.90;;;;;;5001877;28;20178;-83
2022/01/24 06:30:14;;;;;;;7.77;5.23;;;4.00;99.90;;;;;;5016227;28;20181;-83
2022/01/24 06:32:43;;;;;;;8.23;5.40;;;3.90;99.90;;;;;;4980626;28;20181;-79
2022/01/24 06:35:12;;;;;;;9.37;5.73;;;4.00;99.90;;;;;;5015520;28;20170;-82
2022/01/24 06:37:38;;;;;;;8.43;5.03;;;4.10;99.90;;;;;;5005135;28;20252;-84
2022/01/24 06:40:09;;;;;;;10.50;5.57;;;4.10;99.90;;;;;;5031320;28;20198;-76
2022/01/24 06:42:36;;;;;;;8.80;5.63;;;4.20;99.90;;;;;;4990323;28;20177;-77
2022/01/24 06:45:02;;;;;;;13.17;6.50;;;4.30;99.90;;;;;;5013955;28;20209;-86
2022/01/24 06:47:29;;;;;;;10.50;6.23;;;4.30;99.90;;;;;;4982143;28;20170;-79
2022/01/24 06:49:55;;;;;;;11.17;5.60;;;4.30;99.90;;;;;;5026459;28;20181;-84
2022/01/24 06:52:20;;;;;;;11.77;6.00;;;4.40;99.90;;;;;;5011770;28;20189;-78
2022/01/24 06:54:47;;;;;;;9.33;5.77;;;4.30;99.90;;;;;;5016168;28;20185;-84
2022/01/24 06:57:14;;;;;;;18.77;10.73;;;4.30;99.90;;;;;;5012084;28;20197;-84
2022/01/24 06:59:42;;;;;;;13.50;7.63;;;4.30;99.90;;;;;;4992468;28;20240;-75
2022/01/24 07:02:09;;;;;;;10.27;5.07;;;4.50;99.90;;;;;;5030859;28;20249;-76
2022/01/24 07:04:37;;;;;;;12.03;5.67;;;4.40;99.90;;;;;;4998800;28;20186;-77
2022/01/24 07:07:04;;;;;;;8.13;5.20;;;4.40;99.90;;;;;;5032894;28;20177;-81
2022/01/24 07:09:30;;;;;;;9.33;4.97;;;4.50;99.90;;;;;;4983548;28;20182;-82
2022/01/24 07:11:56;;;;;;;7.33;4.93;;;4.50;99.90;;;;;;5000441;28;20169;-78
2022/01/24 07:14:22;;;;;;;11.53;5.80;;;4.50;99.90;;;;;;4983787;28;20181;-81
2022/01/24 07:19:24;;;;;;;8.23;5.40;;;4.60;99.90;;;;;;5016958;28;20197;-84
2022/01/24 07:21:50;;;;;;;8.93;5.13;;;4.60;99.90;;;;;;5015858;28;20544;-84
2022/01/24 07:24:15;;;;;;;7.90;5.40;;;4.60;99.90;;;;;;5015760;28;20174;-82
2022/01/24 07:26:41;;;;;;;8.80;4.83;;;4.60;99.90;;;;;;4999125;28;20664;-78
2022/01/24 07:29:07;;;;;;;10.97;5.10;;;4.70;99.90;;;;;;5016043;28;20193;-82
2022/01/24 07:31:33;;;;;;;7.60;4.97;;;4.70;99.90;;;;;;5014831;28;20182;-76
2022/01/24 07:33:59;;;;;;;9.00;4.50;;;4.60;99.90;;;;;;5028642;28;20188;-81
2022/01/24 07:36:25;;;;;;;8.37;5.07;;;4.70;99.90;;;;;;5032884;28;20169;-84
2022/01/24 07:38:52;;;;;;;10.37;5.83;;;4.60;99.90;;;;;;5031980;28;20194;-77
2022/01/24 07:41:24;;;;;;;11.30;5.83;;;4.60;99.90;;;;;;5012129;28;20537;-82
2022/01/24 07:43:50;;;;;;;7.97;5.53;;;4.70;99.90;;;;;;5031852;28;20181;-77
2022/01/24 07:46:16;;;;;;;9.60;5.53;;;4.70;99.90;;;;;;5031351;28;20197;-76
2022/01/24 07:48:42;;;;;;;7.63;4.67;;;4.80;99.90;;;;;;4997416;28;20938;-84
2022/01/24 07:51:08;;;;;;;9.27;4.87;;;4.90;99.90;;;;;;5014845;28;20747;-76
2022/01/24 07:53:34;;;;;;;7.67;4.73;;;4.90;99.90;;;;;;5030653;28;20229;-81
2022/01/24 07:56:00;;;;;;;8.40;5.13;;;5.20;99.90;;;;;;5031034;28;20181;-81
2022/01/24 07:58:28;;;;;;;7.93;5.77;;;5.00;99.90;;;;;;5031365;28;20280;-74
2022/01/24 08:00:54;;;;;;;13.43;5.67;;;5.00;99.90;;;;;;5027097;28;20648;-82
2022/01/24 08:03:19;;;;;;;9.43;6.22;;;5.00;99.90;;;;;;5009947;28;20448;-75
2022/01/24 08:05:47;;;;;;;8.67;5.80;;;5.10;99.90;;;;;;4998180;28;20664;-76
2022/01/24 08:08:13;;;;;;;11.50;5.57;;;5.10;99.90;;;;;;5027979;28;20298;-74
2022/01/24 08:10:39;;;;;;;9.03;5.60;;;5.20;99.90;;;;;;5032448;28;20254;-76
2022/01/24 08:13:05;;;;;;;8.40;5.17;;;5.00;99.90;;;;;;4998952;28;20186;-81
2022/01/24 08:15:32;;;;;;;9.40;6.43;;;4.90;99.90;;;;;;5024278;28;20516;-76
2022/01/24 08:17:58;;;;;;;9.00;5.13;;;4.80;99.90;;;;;;5031285;28;20616;-82
2022/01/24 08:20:24;;;;;;;8.93;5.47;;;4.90;99.90;;;;;;4995606;28;20292;-76
2022/01/24 08:22:50;;;;;;;7.93;5.30;;;5.00;99.90;;;;;;5013949;28;20181;-80
2022/01/24 08:25:16;;;;;;;8.43;5.10;;;5.00;99.90;;;;;;5030868;28;20177;-80
2022/01/24 08:27:43;;;;;;;7.77;5.17;;;5.10;99.90;;;;;;5013225;28;20224;-76
2022/01/24 08:30:16;;;;;;;8.73;6.07;;;5.10;99.90;;;;;;5014086;28;20209;-76
2022/01/24 08:32:42;;;;;;;9.33;5.10;;;5.00;99.90;;;;;;5027305;28;20556;-74
2022/01/24 08:35:09;;;;;;;11.23;5.90;;;5.00;99.90;;;;;;4982075;28;20182;-75
2022/01/24 08:37:36;;;;;;;8.00;5.30;;;5.00;99.90;;;;;;5032760;28;20251;-75
2022/01/24 08:40:02;;;;;;;8.57;5.30;;;5.10;99.90;;;;;;4996082;28;20208;-77
2022/01/24 08:47:29;;;;;;;8.23;5.43;;;5.10;99.90;;;;;;5007226;28;20189;-80
2022/01/24 08:49:55;;;;;;;8.27;5.27;;;5.30;99.90;;;;;;4996856;28;20181;-76
2022/01/24 08:52:22;;;;;;;9.82;6.38;;;5.40;99.90;;;;;;5012356;28;20441;-74
2022/01/24 08:54:48;;;;;;;8.93;6.03;;;5.40;99.90;;;;;;5029650;28;20547;-81
2022/01/24 08:57:14;;;;;;;9.13;5.83;;;5.40;99.90;;;;;;5028942;28;20301;-81
2022/01/24 08:59:41;;;;;;;14.00;6.53;;;5.40;99.90;;;;;;5021634;28;20213;-80
2022/01/24 09:02:10;;;;;;;10.43;5.83;;;5.40;99.90;;;;;;5024958;28;20729;-81
2022/01/24 09:04:36;;;;;;;10.90;5.97;;;5.40;99.90;;;;;;4993513;28;20171;-82
2022/01/24 09:07:04;;;;;;;10.57;6.20;;;5.50;99.90;;;;;;5010810;28;20236;-76
2022/01/24 09:09:34;;;;;;;10.07;5.87;;;5.60;99.90;;;;;;5012888;28;20251;-74
2022/01/24 09:12:02;;;;;;;13.17;6.97;;;5.80;99.90;;;;;;5025897;28;20182;-76
2022/01/24 09:14:28;;;;;;;11.53;6.93;;;5.60;99.90;;;;;;5008510;28;20178;-82
2022/01/24 09:16:54;;;;;;;12.17;6.30;;;5.60;99.90;;;;;;5029909;28;20202;-81
2022/01/24 09:19:21;;;;;;;11.53;6.70;;;5.50;99.90;;;;;;5012885;28;20831;-79
2022/01/24 09:21:47;;;;;;;9.97;6.07;;;5.50;99.90;;;;;;5013318;28;20193;-81
2022/01/24 09:24:13;;;;;;;14.40;7.03;;;5.50;99.90;;;;;;5030585;28;20170;-82
2022/01/24 09:26:39;;;;;;;11.70;6.87;;;5.40;99.90;;;;;;5025893;28;20190;-74
2022/01/24 09:29:04;;;;;;;13.27;5.90;;;5.40;99.90;;;;;;5015825;28;20250;-81
2022/01/24 09:31:30;;;;;;;12.67;7.40;;;5.40;99.90;;;;;;5009659;28;20190;-76
2022/01/24 09:33:57;;;;;;;12.10;7.30;;;5.30;99.90;;;;;;5015324;28;20182;-81
2022/01/24 09:36:22;;;;;;;16.47;7.20;;;5.40;99.90;;;;;;5010318;28;20186;-75
2022/01/24 09:38:49;;;;;;;11.67;6.87;;;5.40;99.90;;;;;;5022175;28;20212;-75
2022/01/24 09:41:15;;;;;;;12.73;6.93;;;5.50;99.90;;;;;;5025301;28;20524;-75
2022/01/24 09:43:43;;;;;;;12.60;7.33;;;5.50;99.90;;;;;;5023629;28;20174;-75
2022/01/24 09:46:10;;;;;;;11.70;6.93;;;5.60;99.90;;;;;;5016935;28;20196;-74
2022/01/24 09:48:41;;;;;;;9.40;7.30;;;5.60;99.90;;;;;;5023603;28;20179;-79
2022/01/24 09:51:07;;;;;;;12.73;6.97;;;5.70;99.90;;;;;;5021989;28;20184;-79
2022/01/24 09:53:34;;;;;;;10.97;6.47;;;5.70;99.90;;;;;;5025755;28;20571;-76
2022/01/24 09:56:04;;;;;;;11.57;6.83;;;5.80;99.90;;;;;;4993066;28;20212;-79
2022/01/24 09:58:35;;;;;;;10.47;6.87;;;5.90;99.90;;;;;;5011094;28;20174;-83
2022/01/24 10:01:04;;;;;;;11.60;7.40;;;6.00;99.90;;;;;;4993941;28;20236;-80
2022/01/24 10:03:30;;;;;;;12.53;7.17;;;5.90;99.90;;;;;;5009727;28;20236;-81
2022/01/24 10:05:57;;;;;;;12.10;7.17;;;6.00;99.90;;;;;;5010874;28;20558;-76
2022/01/24 10:08:25;;;;;;;10.70;7.03;;;6.00;99.90;;;;;;5028739;28;20712;-80
2022/01/24 10:10:57;;;;;;;12.23;7.50;;;6.00;99.90;;;;;;4999336;28;20212;-81
2022/01/24 10:16:29;;;;;;;11.30;7.50;;;6.00;99.90;;;;;;5030460;28;20221;-76
2022/01/24 10:19:02;;;;;;;15.20;6.93;;;5.90;99.90;;;;;;5030288;28;20205;-81
2022/01/24 10:21:28;;;;;;;9.77;6.77;;;6.00;99.90;;;;;;5021656;28;20249;-82
2022/01/24 10:23:56;;;;;;;12.60;7.40;;;6.20;99.90;;;;;;5003468;28;20197;-77
2022/01/24 10:26:24;;;;;;;11.77;7.20;;;6.20;99.90;;;;;;5013007;28;20695;-75
2022/01/24 10:28:51;;;;;;;14.93;6.43;;;6.30;99.90;;;;;;5031541;28;20185;-80
2022/01/24 10:31:21;;;;;;;9.37;5.97;;;6.30;99.90;;;;;;5013701;28;20182;-81
2022/01/24 10:36:38;;;;;;;10.00;5.70;;;6.50;99.90;;;;;;5031817;28;20685;-82
2022/01/24 10:39:12;;;;;;;7.30;5.53;;;6.50;99.90;;;;;;5016204;28;20233;-82
2022/01/24 10:41:59;;;;;;;12.07;6.47;;;6.50;99.90;;;;;;5010918;28;20171;-76
2022/01/24 10:44:34;;;;;;;7.67;5.67;;;6.50;99.90;;;;;;4982389;28;20181;-81
2022/01/24 10:47:22;;;;;;;8.63;6.07;;;6.50;99.90;;;;;;5031258;28;20166;-75
2022/01/24 10:49:49;;;;;;;6.93;5.40;;;6.60;99.90;;;;;;5013423;28;20277;-83
2022/01/24 10:52:38;;;;;;;7.17;4.97;;;6.70;99.90;;;;;;5029199;28;20182;-83
2022/01/24 10:55:12;;;;;;;8.57;4.70;;;6.70;99.90;;;;;;4996491;28;20194;-76
2022/01/24 10:57:40;;;;;;;8.30;5.77;;;6.70;99.90;;;;;;5011132;28;20179;-83
2022/01/24 11:00:32;;;;;;;7.33;5.00;;;6.70;99.90;;;;;;5010820;28;20203;-84
2022/01/24 11:03:01;;;;;;;9.43;5.33;;;6.70;99.90;;;;;;5011878;28;20190;-77
2022/01/24 11:05:39;;;;;;;8.27;5.57;;;6.80;99.90;;;;;;5014275;28;20238;-76
2022/01/24 11:08:11;;;;;;;6.67;5.30;;;6.70;99.90;;;;;;5013362;28;20179;-77
2022/01/24 11:10:43;;;;;;;7.57;5.50;;;6.90;99.90;;;;;;5031799;28;20190;-75
2022/01/24 11:13:10;;;;;;;11.20;5.53;;;6.90;99.90;;;;;;5032163;28;20234;-76
2022/01/24 11:15:55;;;;;;;9.87;5.13;;;7.10;99.90;;;;;;5015374;28;20216;-75
2022/01/24 11:18:25;;;;;;;7.60;5.33;;;7.10;99.90;;;;;;5032791;28;20200;-81
2022/01/24 11:21:01;;;;;;;6.50;5.13;;;7.20;99.90;;;;;;4985479;28;20174;-80
2022/01/24 11:23:28;;;;;;;8.63;5.47;;;7.40;99.90;;;;;;4997087;28;20186;-77
2022/01/24 11:26:01;;;;;;;7.17;4.50;;;7.40;99.90;;;;;;5012297;28;20325;-83
2022/01/24 11:28:27;;;;;;;6.90;4.77;;;7.40;99.90;;;;;;4981043;28;20650;-81
2022/01/24 11:31:16;;;;;;;6.67;4.73;;;7.40;99.90;;;;;;5019335;28;20247;-76
2022/01/24 11:33:46;;;;;;;11.23;6.93;;;7.50;99.90;;;;;;4998502;28;20182;-81
2022/01/24 11:36:12;;;;;;;5.53;4.43;;;7.40;99.90;;;;;;5032368;28;20211;-82
2022/01/24 11:38:44;;;;;;;7.53;4.50;;;7.80;99.90;;;;;;5033111;28;20251;-85
2022/01/24 11:41:26;;;;;;;6.23;4.50;;;8.00;99.90;;;;;;5032241;28;20177;-82
2022/01/24 11:43:56;;;;;;;6.97;4.30;;;8.10;99.90;;;;;;5045448;28;20503;-79
2022/01/24 11:46:52;;;;;;;4.80;4.17;;;8.30;99.90;;;;;;4998301;28;20186;-82
2022/01/24 11:49:25;;;;;;;7.03;4.20;;;8.40;99.90;;;;;;5032156;28;20243;-82
2022/01/24 11:52:10;;;;;;;9.07;4.13;;;8.30;99.90;;;;;;5033892;28;20178;-79
2022/01/24 11:54:50;;;;;;;6.30;4.13;;;8.20;99.90;;;;;;5029183;28;20694;-79
2022/01/24 11:57:24;;;;;;;6.87;3.80;;;8.20;99.90;;;;;;5019028;28;20589;-81
2022/01/24 12:00:22;;;;;;;7.47;4.07;;;8.20;99.90;;;;;;5028779;28;20215;-81
2022/01/24 12:02:52;;;;;;;5.17;3.97;;;8.20;99.90;;;;;;5013919;28;20197;-80
2022/01/24 12:05:26;;;;;;;6.13;3.83;;;8.50;99.90;;;;;;4992113;28;20184;-76
2022/01/24 12:07:55;;;;;;;4.63;3.63;;;8.60;99.90;;;;;;5011962;28;20196;-79
2022/01/24 12:10:25;;;;;;;5.03;3.23;;;8.80;99.90;;;;;;4979442;28;20179;-82
2022/01/24 12:12:59;;;;;;;4.73;3.80;;;8.80;99.90;;;;;;5011079;28;20642;-82
2022/01/24 12:15:37;;;;;;;5.67;3.63;;;8.80;99.90;;;;;;5011907;28;20274;-82
2022/01/24 12:18:04;;;;;;;4.37;3.17;;;8.70;99.90;;;;;;5013194;28;20171;-77
2022/01/24 12:20:30;;;;;;;5.87;3.87;;;8.70;99.90;;;;;;4979086;28;20218;-81
2022/01/24 12:23:19;;;;;;;4.73;3.80;;;8.60;99.90;;;;;;5012901;28;20249;-77
2022/01/24 12:26:02;;;;;;;4.03;3.07;;;8.60;99.90;;;;;;5012006;28;20289;-81
2022/01/24 12:28:48;;;;;;;5.10;3.10;;;8.60;99.90;;;;;;4995771;28;20188;-76
2022/01/24 12:31:45;;;;;;;4.37;3.10;;;8.60;99.90;;;;;;5011381;28;20178;-76
2022/01/24 12:34:18;;;;;;;4.70;3.43;;;8.80;99.90;;;;;;5027513;28;20533;-75
2022/01/24 12:37:14;;;;;;;5.07;3.37;;;8.80;99.90;;;;;;5030719;28;20178;-75
2022/01/24 12:39:52;;;;;;;4.80;3.00;;;8.80;99.90;;;;;;5014105;28;20232;-81
2022/01/24 12:42:38;;;;;;;3.47;2.80;;;8.80;99.90;;;;;;5030518;28;20204;-81
2022/01/24 12:48:14;;;;;;;2.87;2.30;;;8.80;99.90;;;;;;5030860;28;20157;-75
2022/01/24 12:50:48;;;;;;;2.90;2.40;;;8.80;99.90;;;;;;5030281;28;20178;-81
2022/01/24 12:53:16;;;;;;;3.17;2.70;;;8.90;99.90;;;;;;5047759;28;20180;-76
2022/01/24 12:55:56;;;;;;;2.77;2.30;;;8.90;99.90;;;;;;5030546;28;20270;-81
2022/01/24 12:58:37;;;;;;;4.53;2.33;;;9.10;99.90;;;;;;5047270;28;20590;-75
2022/01/24 13:01:32;;;;;;;4.13;2.47;;;9.20;99.90;;;;;;5046161;28;20253;-74
2022/01/24 13:04:02;;;;;;;3.53;2.57;;;9.10;99.90;;;;;;5030741;28;20165;-83
2022/01/24 13:06:35;;;;;;;3.50;2.13;;;9.00;99.90;;;;;;4997196;28;20189;-76
2022/01/24 13:09:15;;;;;;;2.83;2.40;;;9.10;99.90;;;;;;5013885;28;20582;-78
2022/01/24 13:11:52;;;;;;;6.73;2.27;;;9.20;99.90;;;;;;5013672;28;20173;-75
2022/01/24 13:14:30;;;;;;;6.37;2.73;;;9.10;99.90;;;;;;5030163;28;20182;-75
2022/01/24 13:22:50;;;;;;;2.30;2.07;;;9.30;99.90;;;;;;5029769;28;20174;-77
2022/01/24 13:25:28;;;;;;;2.70;2.10;;;9.30;99.90;;;;;;5028636;28;20268;-76
2022/01/24 13:28:08;;;;;;;3.07;2.17;;;9.40;99.90;;;;;;5030790;28;20170;-77
2022/01/24 13:30:41;;;;;;;6.47;2.20;;;9.30;99.90;;;;;;5012572;28;20181;-76
2022/01/24 13:33:14;;;;;;;3.10;2.13;;;9.30;99.90;;;;;;5029597;28;20227;-75
2022/01/24 13:35:46;;;;;;;3.10;2.47;;;9.30;99.90;;;;;;5028437;28;20185;-80
2022/01/24 13:38:15;;;;;;;3.27;2.10;;;9.40;99.90;;;;;;5013980;28;20652;-76
2022/01/24 13:40:55;;;;;;;2.90;2.20;;;9.40;99.90;;;;;;5030462;28;20247;-79
2022/01/24 13:43:34;;;;;;;2.83;2.10;;;9.30;99.90;;;;;;5029623;28;20219;-75
2022/01/24 13:46:03;;;;;;;4.20;2.03;;;9.30;99.90;;;;;;5029800;28;20174;-75
2022/01/24 13:48:36;;;;;;;3.67;1.87;;;9.50;99.90;;;;;;5027521;28;20247;-81
2022/01/24 13:51:02;;;;;;;3.40;2.17;;;9.60;99.90;;;;;;5030108;28;20200;-74
2022/01/24 13:53:47;;;;;;;2.10;1.90;;;9.60;99.90;;;;;;5012481;28;20860;-76
2022/01/24 13:56:26;;;;;;;4.40;1.87;;;9.60;99.90;;;;;;5029191;28;20170;-76
2022/01/24 13:59:27;;;;;;;3.00;2.10;;;9.60;99.90;;;;;;5030500;28;20212;-81
2022/01/24 14:02:00;;;;;;;2.53;2.00;;;9.60;99.90;;;;;;4998570;28;20182;-75
2022/01/24 14:04:28;;;;;;;4.73;2.53;;;9.50;99.90;;;;;;5029147;28;20561;-80
2022/01/24 14:06:59;;;;;;;3.93;2.20;;;9.40;99.90;;;;;;5012802;28;20165;-76
2022/01/24 14:09:37;;;;;;;3.57;2.07;;;9.20;99.90;;;;;;5028669;28;20641;-76
2022/01/24 14:12:05;;;;;;;3.40;2.10;;;9.30;99.90;;;;;;5012769;28;20173;-74
2022/01/24 14:14:41;;;;;;;3.50;2.10;;;9.50;99.90;;;;;;5029117;28;20557;-76
2022/01/24 14:19:35;;;;;;;2.73;1.73;;;9.30;99.90;;;;;;5028864;28;20201;-76
2022/01/24 14:22:01;;;;;;;3.93;2.03;;;9.30;99.90;;;;;;4980674;28;20170;-81
2022/01/24 14:24:50;;;;;;;3.30;1.97;;;9.30;99.90;;;;;;5009076;28;20180;-77
2022/01/24 14:27:40;;;;;;;3.27;1.73;;;9.20;99.90;;;;;;4997711;28;20208;-76
2022/01/24 14:30:11;;;;;;;3.03;1.93;;;9.10;99.90;;;;;;5022598;28;20221;-82
2022/01/24 14:32:45;;;;;;;3.87;2.00;;;9.00;99.90;;;;;;5028318;28;20198;-83
2022/01/24 14:35:12;;;;;;;3.13;1.97;;;9.10;99.90;;;;;;5022849;28;20653;-76
2022/01/24 14:37:48;;;;;;;2.70;2.10;;;9.20;99.90;;;;;;5026748;28;20182;-76
2022/01/24 14:40:49;;;;;;;4.37;2.37;;;9.10;99.90;;;;;;5034370;28;20543;-81
2022/01/24 14:46:13;;;;;;;3.23;1.87;;;9.10;99.90;;;;;;5008794;28;20190;-82
2022/01/24 14:48:51;;;;;;;2.40;1.67;;;9.10;99.90;;;;;;5026311;28;20209;-76
2022/01/24 14:51:23;;;;;;;3.87;1.90;;;9.10;99.90;;;;;;5025484;28;20209;-81
2022/01/24 14:53:50;;;;;;;2.40;1.97;;;8.80;99.90;;;;;;4992271;28;20717;-81
2022/01/24 14:56:16;;;;;;;4.47;2.33;;;8.80;99.90;;;;;;5004389;28;20298;-82